Terminal Aerodrome Forecast
Issued by NWS Wichita, KS

Home | Current Version | Previous Version | Graphics & Text | Print | Product List | Glossary On
Versions: 1 2 3 4 5 6 7 8 9 10 11 12 13 14 15 16 17 18 19 20 21 22 23 24 25 26
827
FTUS43 KICT 201831 AAA
TAFICT
TAF AMD
KICT 201831Z 2019/2118 18008KT P6SM SCT015 BKN020 OVC030
     FM202000 18007KT P6SM BKN035
     FM210000 22008KT P6SM FEW250
     FM211000 25006KT 4SM BR SCT250
     FM211500 VRB03KT P6SM SCT250=

USA.gov is the U.S. government's official web portal to all federal, state and local government web resources and services.